Airfield :
LOGIN :

Register | Disclaimer

   EN    FR    IT 

 










Legend :    VFR   Marginal VFR   IFR   Intensive IFR   Very Intensive IFR
Visi :
Ceiling :
>= 8 km
>= 3000ft
5 to 8 km
1000 to 3000 ft
1500m to 5 km
500 to 1000 ft
800 to 1500m
200 to 500 ft
< 800m
< 200 ft
Symbols :   Thunderstorms  Fog  Heavy snow  Heavy precipitations  Wind > 20 kt
SIGMETs :     Misc.  Thunderstorms  Icing  Turbulence  Mountain Waves  Volcanic Ashes






- Airport Elevation : 308 ft


ESCF - Malmen AB

CURRENT METAR :
  • 050420Z AUTO 18004KT 9999 -SHRA FEW038/// BKN049/// BKN084/// 13/13 Q1001

EXPIRED METARs :
  • 050350Z AUTO 17004KT 9999 -RA SCT046/// BKN076/// BKN096/// OVC120/// 12/12 Q1002
  • 050320Z AUTO 17004KT 9999 SCT050/// BKN058/// OVC092/// 12/12 Q1002
  • 050250Z AUTO VRB01KT 9999 4800// BKN072/// 11/11 Q1002
  • 050220Z AUTO 17003KT 4600 SCT088/// BKN160/// 11/11 Q1002
  • 050150Z AUTO 21006KT 2300 0700// R01/1200VP2000D R19/P2000N BR FEW150/// 10/10 Q1002

Expired Forecast.



MET'MAP, your aeronautical weather chart ! - Copyright ORBIFLY December 2007 - Disclaimer

ORBIFLY MET'MAP TEAM :

Programming & Development : Alexandra Zaïnal
Concept & original design : Baudouin d'Aumeries
Assistance for programming : Marc-Olivier Méhu
Technical & hardware support : Manuel Goepfert

Contact : metmap@orbifly.com




SOURCES & CREDITS :

   NOAA